Time;durP1;ratioP1;P1;durP2;ratioP2;P2;SDS_P1;SDS_P2;PMS_P1;PMS_P2;Temp;Humidity;BMP_temperature;BMP_pressure;BME280_temperature;BME280_humidity;BME280_pressure;Samples;Min_cycle;Max_cycle;Signal;HPM_P1;HPM_P2
2023/12/02 00:02:16;;;;;;;34.35;18.02;;;;;;;-1.45;100.00;101128.13;4924650;28;20035;-76
2023/12/02 00:04:43;;;;;;;33.08;17.10;;;;;;;-1.43;100.00;101128.22;4957167;28;20046;-75
2023/12/02 00:07:10;;;;;;;35.03;16.98;;;;;;;-1.41;100.00;101132.66;4935459;28;20055;-76
2023/12/02 00:09:38;;;;;;;33.17;16.83;;;;;;;-1.39;100.00;101130.16;4947301;28;20058;-76
2023/12/02 00:12:05;;;;;;;32.97;16.23;;;;;;;-1.41;100.00;101119.72;4967854;28;20050;-76
2023/12/02 00:14:32;;;;;;;31.08;16.02;;;;;;;-1.40;100.00;101124.13;4961872;28;20038;-76
2023/12/02 00:17:01;;;;;;;28.42;15.20;;;;;;;-1.40;100.00;101113.78;4893711;28;20061;-76
2023/12/02 00:19:30;;;;;;;30.23;15.52;;;;;;;-1.39;100.00;101119.81;4975311;28;20039;-76
2023/12/02 00:21:58;;;;;;;32.05;16.50;;;;;;;-1.40;100.00;101115.44;4961597;28;20043;-76
2023/12/02 00:24:25;;;;;;;31.50;16.83;;;;;;;-1.43;100.00;101121.34;4959684;28;20453;-76
2023/12/02 00:26:52;;;;;;;36.13;16.25;;;;;;;-1.44;100.00;101114.38;4960943;28;20043;-76
2023/12/02 00:29:20;;;;;;;30.88;16.10;;;;;;;-1.43;100.00;101125.63;4974311;28;20047;-76
2023/12/02 00:31:47;;;;;;;32.03;16.77;;;;;;;-1.41;100.00;101118.84;4979753;28;20046;-76
2023/12/02 00:34:14;;;;;;;32.60;16.55;;;;;;;-1.39;100.00;101117.25;4928019;28;20047;-76
2023/12/02 00:36:45;;;;;;;30.23;16.27;;;;;;;-1.38;100.00;101117.34;4954169;28;20039;-76
2023/12/02 00:39:13;;;;;;;30.05;16.48;;;;;;;-1.34;100.00;101123.56;4954640;28;20059;-76
2023/12/02 00:41:41;;;;;;;32.08;17.40;;;;;;;-1.31;100.00;101120.25;4961055;28;20152;-76
2023/12/02 00:44:09;;;;;;;33.55;15.98;;;;;;;-1.31;100.00;101113.38;4983659;28;20042;-76
2023/12/02 00:46:36;;;;;;;35.10;17.27;;;;;;;-1.32;100.00;101108.09;4969151;28;20059;-77
2023/12/02 00:49:03;;;;;;;34.58;16.90;;;;;;;-1.32;100.00;101110.69;4910851;28;20062;-76
2023/12/02 00:51:31;;;;;;;29.73;16.42;;;;;;;-1.33;100.00;101106.34;4946330;28;20098;-76
2023/12/02 00:53:58;;;;;;;29.65;17.42;;;;;;;-1.34;100.00;101107.13;4977341;28;20096;-77
2023/12/02 00:56:26;;;;;;;36.70;16.67;;;;;;;-1.35;100.00;101102.78;4954785;28;20058;-77
2023/12/02 00:58:53;;;;;;;31.70;18.63;;;;;;;-1.34;100.00;101110.63;4954461;28;20062;-75
2023/12/02 01:01:21;;;;;;;33.92;17.40;;;;;;;-1.34;100.00;101108.06;4970960;28;20058;-76
2023/12/02 01:03:48;;;;;;;31.65;17.15;;;;;;;-1.33;100.00;101106.34;4930667;28;20082;-77
2023/12/02 01:06:15;;;;;;;38.53;18.15;;;;;;;-1.34;100.00;101107.13;4944299;28;20050;-77
2023/12/02 01:08:42;;;;;;;32.13;16.38;;;;;;;-1.34;100.00;101104.56;4981684;28;20475;-75
2023/12/02 01:11:10;;;;;;;31.50;17.42;;;;;;;-1.34;100.00;101105.47;4950922;28;20392;-76
2023/12/02 01:13:37;;;;;;;33.17;17.90;;;;;;;-1.33;100.00;101101.19;4958524;28;20054;-76
2023/12/02 01:16:05;;;;;;;34.80;16.80;;;;;;;-1.35;100.00;101100.22;4965355;28;20047;-76
2023/12/02 01:18:32;;;;;;;34.22;17.73;;;;;;;-1.37;100.00;101103.56;4954664;28;20043;-76
2023/12/02 01:21:00;;;;;;;34.03;16.52;;;;;;;-1.36;100.00;101101.91;4939409;28;20059;-75
2023/12/02 01:23:27;;;;;;;35.95;17.23;;;;;;;-1.38;100.00;101103.50;4963914;28;20057;-76
2023/12/02 01:25:54;;;;;;;35.38;17.13;;;;;;;-1.40;100.00;101100.84;4959215;28;20461;-75
2023/12/02 01:28:22;;;;;;;31.70;17.02;;;;;;;-1.40;100.00;101105.09;4954709;28;20677;-76
2023/12/02 01:30:49;;;;;;;34.50;15.73;;;;;;;-1.40;100.00;101108.59;4956835;28;20489;-77
2023/12/02 01:33:16;;;;;;;31.88;17.77;;;;;;;-1.41;100.00;101105.94;4962694;28;20043;-75
2023/12/02 01:35:44;;;;;;;32.92;16.17;;;;;;;-1.40;100.00;101108.59;4925120;28;20057;-76
2023/12/02 01:38:11;;;;;;;31.42;16.45;;;;;;;-1.40;100.00;101106.03;4974364;28;20057;-77
2023/12/02 01:40:38;;;;;;;33.13;16.65;;;;;;;-1.38;100.00;101108.66;4968403;28;20043;-75
2023/12/02 01:43:06;;;;;;;31.95;16.80;;;;;;;-1.37;100.00;101111.34;4947545;28;20051;-77
2023/12/02 01:45:33;;;;;;;31.17;17.17;;;;;;;-1.37;100.00;101098.41;4942055;28;20046;-76
2023/12/02 01:48:02;;;;;;;34.35;18.10;;;;;;;-1.35;100.00;101106.25;4966563;28;20039;-77
2023/12/02 01:50:29;;;;;;;31.88;16.52;;;;;;;-1.35;100.00;101102.78;4944473;28;20042;-77
2023/12/02 01:52:56;;;;;;;32.83;16.70;;;;;;;-1.37;100.00;101108.75;4884064;28;20062;-77
2023/12/02 01:55:25;;;;;;;33.15;16.02;;;;;;;-1.38;100.00;101109.56;4981883;28;20081;-76
2023/12/02 01:57:52;;;;;;;30.52;16.05;;;;;;;-1.39;100.00;101112.94;4951117;28;20057;-75
2023/12/02 02:00:20;;;;;;;34.55;16.70;;;;;;;-1.41;100.00;101109.41;4961130;28;20054;-75
2023/12/02 02:02:47;;;;;;;32.58;16.05;;;;;;;-1.41;100.00;101105.94;4966095;28;20050;-76
2023/12/02 02:05:15;;;;;;;31.08;16.48;;;;;;;-1.38;100.00;101104.41;4957589;28;20062;-76
2023/12/02 02:07:42;;;;;;;32.95;16.27;;;;;;;-1.37;100.00;101107.88;4867395;28;20055;-75
2023/12/02 02:10:10;;;;;;;31.02;16.30;;;;;;;-1.37;100.00;101105.28;4964595;28;20051;-76
2023/12/02 02:12:37;;;;;;;32.88;15.75;;;;;;;-1.38;100.00;101113.84;4977519;28;20047;-76
2023/12/02 02:15:05;;;;;;;28.55;15.40;;;;;;;-1.38;100.00;101108.66;4923253;28;20047;-76
2023/12/02 02:17:32;;;;;;;27.85;16.02;;;;;;;-1.42;100.00;101110.22;4955451;28;20051;-76
2023/12/02 02:20:00;;;;;;;25.98;14.95;;;;;;;-1.45;100.00;101111.72;4951123;28;20047;-76
2023/12/02 02:22:27;;;;;;;27.15;14.95;;;;;;;-1.50;100.00;101106.28;4922439;28;20034;-76
2023/12/02 02:24:54;;;;;;;31.10;16.02;;;;;;;-1.50;100.00;101111.47;4971718;28;20054;-76
2023/12/02 02:27:22;;;;;;;29.52;15.80;;;;;;;-1.51;100.00;101101.03;4947695;28;20425;-76
2023/12/02 02:29:49;;;;;;;27.85;14.77;;;;;;;-1.53;100.00;101102.63;4967421;28;20140;-76
2023/12/02 02:32:16;;;;;;;35.53;17.30;;;;;;;-1.54;100.00;101103.47;4982090;28;20443;-76
2023/12/02 02:34:44;;;;;;;28.77;14.75;;;;;;;-1.54;100.00;101109.50;4981837;28;20050;-76
2023/12/02 02:37:11;;;;;;;31.30;15.27;;;;;;;-1.55;100.00;101100.00;4967835;28;20062;-76
2023/12/02 02:39:39;;;;;;;31.40;15.32;;;;;;;-1.57;100.00;101099.91;4923165;28;20047;-76
2023/12/02 02:42:06;;;;;;;32.60;15.80;;;;;;;-1.59;100.00;101098.94;4967974;28;20055;-76
2023/12/02 02:44:34;;;;;;;30.13;14.90;;;;;;;-1.61;100.00;101090.22;4962660;28;20062;-75
2023/12/02 02:47:01;;;;;;;30.10;13.88;;;;;;;-1.64;100.00;101087.44;4947479;28;20567;-76
2023/12/02 02:49:28;;;;;;;29.20;14.55;;;;;;;-1.63;100.00;101086.63;4961062;28;20499;-76
2023/12/02 02:51:56;;;;;;;31.00;15.52;;;;;;;-1.63;100.00;101083.16;4933429;28;20054;-76
2023/12/02 02:54:23;;;;;;;31.02;15.07;;;;;;;-1.64;100.00;101086.56;4922476;28;20153;-76
2023/12/02 02:56:51;;;;;;;35.05;15.07;;;;;;;-1.66;100.00;101089.06;4980333;28;20054;-76
2023/12/02 02:59:18;;;;;;;30.75;16.05;;;;;;;-1.68;100.00;101087.16;4953715;28;20071;-75
2023/12/02 03:01:47;;;;;;;25.33;13.75;;;;;;;-1.69;100.00;101087.97;4957160;28;20374;-76
2023/12/02 03:04:15;;;;;;;30.23;15.48;;;;;;;-1.70;100.00;101088.78;4964537;28;20085;-76
2023/12/02 03:06:43;;;;;;;31.88;14.38;;;;;;;-1.72;100.00;101078.38;4961774;28;20419;-76
2023/12/02 03:09:11;;;;;;;32.83;16.30;;;;;;;-1.73;100.00;101086.91;4925866;28;20042;-76
2023/12/02 03:11:39;;;;;;;26.85;15.13;;;;;;;-1.75;100.00;101096.28;4965484;28;20059;-76
2023/12/02 03:14:06;;;;;;;34.28;16.55;;;;;;;-1.76;100.00;101099.66;4960002;28;20399;-76
2023/12/02 03:16:34;;;;;;;27.35;15.32;;;;;;;-1.78;100.00;101098.66;4957000;28;20054;-75
2023/12/02 03:19:01;;;;;;;32.30;15.20;;;;;;;-1.78;100.00;101097.00;4974465;28;20054;-76
2023/12/02 03:21:29;;;;;;;29.98;15.20;;;;;;;-1.77;100.00;101095.31;4968019;28;20050;-76
2023/12/02 03:23:56;;;;;;;31.00;15.98;;;;;;;-1.77;100.00;101098.75;4895790;28;20047;-76
2023/12/02 03:26:24;;;;;;;27.15;14.48;;;;;;;-1.76;100.00;101094.47;4956917;28;20080;-76
2023/12/02 03:28:52;;;;;;;30.45;14.50;;;;;;;-1.77;100.00;101097.88;4964173;28;20054;-76
2023/12/02 03:31:19;;;;;;;25.10;13.63;;;;;;;-1.77;100.00;101090.13;4976355;28;20057;-75
2023/12/02 03:33:47;;;;;;;27.17;14.20;;;;;;;-1.76;100.00;101089.31;4935282;28;20035;-76
2023/12/02 03:36:14;;;;;;;27.77;14.05;;;;;;;-1.74;100.00;101092.88;4959139;28;20055;-76
2023/12/02 03:38:42;;;;;;;30.13;14.75;;;;;;;-1.73;100.00;101081.75;4949004;28;20061;-75
2023/12/02 03:41:09;;;;;;;29.42;13.70;;;;;;;-1.71;100.00;101074.09;4952006;28;20050;-76
2023/12/02 03:43:36;;;;;;;27.95;13.75;;;;;;;-1.70;100.00;101081.03;4968650;28;20034;-76
2023/12/02 03:46:27;;;;;;;26.55;13.55;;;;;;;-1.69;100.00;101081.13;4980109;28;20051;-76
2023/12/02 03:48:55;;;;;;;27.55;13.60;;;;;;;-1.69;100.00;101083.69;4945244;28;20054;-75
2023/12/02 03:51:23;;;;;;;26.15;13.98;;;;;;;-1.70;100.00;101083.59;4950432;28;20451;-75
2023/12/02 03:53:50;;;;;;;26.45;13.50;;;;;;;-1.70;100.00;101079.34;4964829;28;20492;-76
2023/12/02 03:56:18;;;;;;;25.90;13.43;;;;;;;-1.70;100.00;101079.34;4919074;28;20501;-76
2023/12/02 03:58:46;;;;;;;29.38;14.52;;;;;;;-1.70;100.00;101078.44;4962717;28;20050;-76
2023/12/02 04:01:14;;;;;;;25.88;14.15;;;;;;;-1.70;100.00;101084.53;4982852;28;20416;-76
2023/12/02 04:03:42;;;;;;;29.55;14.80;;;;;;;-1.72;100.00;101080.97;4950418;28;20047;-76
2023/12/02 04:06:09;;;;;;;24.80;13.65;;;;;;;-1.72;100.00;101082.63;4966714;28;20070;-76
2023/12/02 04:08:37;;;;;;;23.23;12.45;;;;;;;-1.73;100.00;101089.50;4980894;28;20042;-76
2023/12/02 04:11:04;;;;;;;23.42;12.77;;;;;;;-1.74;100.00;101092.88;4928100;28;20716;-76
2023/12/02 04:13:31;;;;;;;25.13;12.80;;;;;;;-1.75;100.00;101096.28;4970850;28;20476;-76
2023/12/02 04:15:59;;;;;;;20.83;12.20;;;;;;;-1.77;100.00;101100.47;4969165;28;20054;-76
2023/12/02 04:18:26;;;;;;;22.90;12.32;;;;;;;-1.78;100.00;101102.16;4963579;28;20050;-76
2023/12/02 04:20:54;;;;;;;24.13;12.80;;;;;;;-1.79;100.00;101092.63;4960014;28;20046;-76
2023/12/02 04:23:22;;;;;;;25.52;12.95;;;;;;;-1.78;100.00;101106.44;4961793;28;20404;-76
2023/12/02 04:25:49;;;;;;;23.77;12.63;;;;;;;-1.79;100.00;101100.38;4967391;28;20061;-76
2023/12/02 04:28:16;;;;;;;27.48;12.30;;;;;;;-1.78;100.00;101103.84;4944714;28;20042;-76
2023/12/02 04:30:44;;;;;;;21.15;12.23;;;;;;;-1.78;100.00;101096.09;4943558;28;20051;-76
2023/12/02 04:33:12;;;;;;;23.05;11.68;;;;;;;-1.77;100.00;101105.63;4977118;28;20058;-76
2023/12/02 04:35:40;;;;;;;22.73;11.98;;;;;;;-1.79;100.00;101100.38;4947210;28;20054;-76
2023/12/02 04:38:07;;;;;;;22.45;11.48;;;;;;;-1.77;100.00;101111.69;4969413;28;20042;-76
2023/12/02 04:40:35;;;;;;;23.77;12.48;;;;;;;-1.78;100.00;101107.34;4967833;28;20054;-76
2023/12/02 04:43:02;;;;;;;23.70;12.38;;;;;;;-1.78;100.00;101115.09;4928680;28;20500;-76
2023/12/02 04:45:30;;;;;;;29.38;11.63;;;;;;;-1.79;100.00;101105.53;4969949;28;20470;-76
2023/12/02 04:47:58;;;;;;;23.73;13.20;;;;;;;-1.77;100.00;101108.22;4968789;28;20498;-76
2023/12/02 04:50:27;;;;;;;24.50;12.20;;;;;;;-1.77;100.00;101114.28;4946053;28;20043;-75
2023/12/02 04:52:54;;;;;;;21.67;12.20;;;;;;;-1.77;100.00;101118.56;4967506;28;20050;-76
2023/12/02 04:55:21;;;;;;;25.08;13.88;;;;;;;-1.81;100.00;101103.69;4986243;28;20065;-76
2023/12/02 04:57:49;;;;;;;25.88;12.23;;;;;;;-1.82;100.00;101118.28;4943101;28;20065;-75
2023/12/02 05:00:17;;;;;;;22.33;12.18;;;;;;;-1.82;100.00;101122.56;4972184;28;20062;-76
2023/12/02 05:02:44;;;;;;;26.58;12.55;;;;;;;-1.83;100.00;101119.09;4959626;28;20054;-76
2023/12/02 05:05:12;;;;;;;20.10;10.70;;;;;;;-1.82;100.00;101113.09;4968875;28;20051;-76
2023/12/02 05:07:41;;;;;;;21.55;11.93;;;;;;;-1.83;100.00;101118.22;4961527;28;20046;-76
2023/12/02 05:10:08;;;;;;;21.92;11.73;;;;;;;-1.82;100.00;101119.97;4984415;28;20054;-76
2023/12/02 05:12:36;;;;;;;23.00;12.43;;;;;;;-1.80;100.00;101118.38;4963631;28;20055;-76
2023/12/02 05:15:04;;;;;;;22.63;12.57;;;;;;;-1.79;100.00;101121.03;4945861;28;20051;-76
2023/12/02 05:17:32;;;;;;;21.23;10.95;;;;;;;-1.81;100.00;101121.78;4944799;28;20062;-76
2023/12/02 05:20:00;;;;;;;21.13;11.95;;;;;;;-1.83;100.00;101118.22;4969798;28;20054;-76
2023/12/02 05:22:27;;;;;;;23.52;12.35;;;;;;;-1.85;100.00;101119.78;4937198;28;20498;-76
2023/12/02 05:24:54;;;;;;;24.15;11.98;;;;;;;-1.87;100.00;101126.56;4974086;28;20043;-76
2023/12/02 05:27:22;;;;;;;23.30;12.95;;;;;;;-1.88;100.00;101135.13;4971795;28;20042;-76
2023/12/02 05:29:49;;;;;;;20.48;12.07;;;;;;;-1.88;100.00;101125.69;4934784;28;20042;-76
2023/12/02 05:32:16;;;;;;;25.08;14.50;;;;;;;-1.90;100.00;101132.44;4983208;28;20054;-77
2023/12/02 05:34:44;;;;;;;29.88;15.18;;;;;;;-1.91;100.00;101135.84;4968202;28;20408;-76
2023/12/02 05:37:11;;;;;;;25.48;14.18;;;;;;;-1.91;100.00;101132.34;4940934;28;20046;-77
2023/12/02 05:39:38;;;;;;;29.23;15.68;;;;;;;-1.93;100.00;101132.25;4935069;28;20055;-77
2023/12/02 05:42:06;;;;;;;28.38;15.70;;;;;;;-1.94;100.00;101140.84;4966896;28;20050;-75
2023/12/02 05:44:34;;;;;;;29.17;15.05;;;;;;;-1.94;100.00;101134.78;4947330;28;20172;-76
2023/12/02 05:47:01;;;;;;;30.67;15.82;;;;;;;-1.93;100.00;101137.44;4956239;28;20478;-76
2023/12/02 05:49:29;;;;;;;30.90;16.50;;;;;;;-1.90;100.00;101147.06;4960054;28;20090;-76
2023/12/02 05:51:56;;;;;;;31.58;16.55;;;;;;;-1.91;100.00;101141.03;4959667;28;20863;-76
2023/12/02 05:54:24;;;;;;;33.35;15.90;;;;;;;-1.91;100.00;101134.94;4958618;28;20511;-76
2023/12/02 05:56:55;;;;;;;28.75;15.88;;;;;;;-1.94;100.00;101145.13;4958417;28;20057;-76
2023/12/02 05:59:22;;;;;;;31.70;16.40;;;;;;;-1.96;100.00;101147.59;4981099;28;20055;-76
2023/12/02 06:01:49;;;;;;;28.85;16.30;;;;;;;-1.98;100.00;101150.09;4922677;28;20061;-76
2023/12/02 06:04:17;;;;;;;33.67;17.83;;;;;;;-1.97;100.00;101148.38;4948204;28;20050;-77
2023/12/02 06:06:46;;;;;;;32.15;16.70;;;;;;;-1.99;100.00;101142.25;4966187;28;20051;-77
2023/12/02 06:09:14;;;;;;;34.00;18.58;;;;;;;-2.00;100.00;101146.53;4931057;28;20047;-75
2023/12/02 06:11:41;;;;;;;32.20;17.55;;;;;;;-1.99;100.00;101147.41;4945805;28;20054;-75
2023/12/02 06:14:08;;;;;;;34.53;18.02;;;;;;;-1.98;100.00;101144.03;4971190;28;20054;-75
2023/12/02 06:16:36;;;;;;;32.42;17.00;;;;;;;-1.94;100.00;101145.13;4927351;28;20046;-77
2023/12/02 06:19:03;;;;;;;31.77;17.15;;;;;;;-1.94;100.00;101152.88;4966548;28;20055;-76
2023/12/02 06:21:31;;;;;;;35.13;18.15;;;;;;;-1.94;100.00;101150.28;4958844;28;20065;-75
2023/12/02 06:23:58;;;;;;;37.55;17.65;;;;;;;-1.96;100.00;101157.94;4934431;28;20070;-75
2023/12/02 06:26:26;;;;;;;31.42;17.15;;;;;;;-1.97;100.00;101158.72;4952305;28;20053;-75
2023/12/02 06:28:53;;;;;;;31.60;17.20;;;;;;;-1.97;100.00;101153.56;4968482;28;20408;-77
2023/12/02 06:31:21;;;;;;;34.70;17.95;;;;;;;-1.97;100.00;101150.97;4924168;28;20098;-76
2023/12/02 06:33:48;;;;;;;34.80;17.67;;;;;;;-1.97;100.00;101159.63;4974784;28;20055;-77
2023/12/02 06:36:15;;;;;;;33.88;17.98;;;;;;;-1.98;100.00;101155.25;4965166;28;20059;-75
2023/12/02 06:38:43;;;;;;;33.65;17.30;;;;;;;-1.98;100.00;101164.72;4958343;28;20051;-75
2023/12/02 06:41:10;;;;;;;34.17;17.40;;;;;;;-1.98;100.00;101157.84;4936600;28;20070;-75
2023/12/02 06:43:37;;;;;;;32.80;18.15;;;;;;;-1.97;100.00;101169.97;4981586;28;20042;-76
2023/12/02 06:46:05;;;;;;;34.90;17.35;;;;;;;-1.98;100.00;101165.59;4972839;28;20077;-75
2023/12/02 06:48:33;;;;;;;34.17;18.17;;;;;;;-1.98;100.00;101170.75;4944552;28;20247;-76
2023/12/02 06:51:00;;;;;;;33.88;17.17;;;;;;;-1.99;100.00;101170.66;4964696;28;20066;-76
2023/12/02 06:53:28;;;;;;;32.55;16.80;;;;;;;-1.99;100.00;101176.69;4945664;28;24672;-77
2023/12/02 06:55:55;;;;;;;37.83;17.20;;;;;;;-1.99;100.00;101178.41;4956174;28;20054;-76
2023/12/02 06:58:22;;;;;;;39.80;19.75;;;;;;;-1.99;100.00;101174.13;4947509;28;20065;-76
2023/12/02 07:00:51;;;;;;;37.53;19.42;;;;;;;-1.99;100.00;101184.44;4944153;28;20046;-76
2023/12/02 07:03:19;;;;;;;35.88;17.52;;;;;;;-2.01;100.00;101183.47;4918867;28;20043;-76
2023/12/02 07:05:46;;;;;;;31.30;18.00;;;;;;;-2.02;100.00;101186.88;4951052;28;20046;-76
2023/12/02 07:08:13;;;;;;;36.40;20.60;;;;;;;-2.04;100.00;101188.47;4952616;28;20054;-76
2023/12/02 07:10:41;;;;;;;34.90;18.20;;;;;;;-2.06;100.00;101187.50;4943670;28;20050;-76
2023/12/02 07:13:08;;;;;;;31.65;17.10;;;;;;;-2.07;100.00;101200.31;4951205;28;20050;-76
2023/12/02 07:15:36;;;;;;;34.30;16.88;;;;;;;-2.07;100.00;101200.31;4951139;28;20051;-76
2023/12/02 07:18:06;;;;;;;36.08;19.00;;;;;;;-2.05;100.00;101206.47;4970545;28;20066;-76
2023/12/02 07:20:33;;;;;;;34.95;17.75;;;;;;;-2.05;100.00;101214.19;4905663;28;20058;-76
2023/12/02 07:23:01;;;;;;;35.05;16.63;;;;;;;-2.05;100.00;101212.50;4955367;28;20054;-76
2023/12/02 07:25:28;;;;;;;32.88;16.48;;;;;;;-2.05;100.00;101216.78;4968430;28;20047;-76
2023/12/02 07:27:57;;;;;;;30.35;16.00;;;;;;;-2.05;100.00;101214.19;4950266;28;20066;-76
2023/12/02 07:30:24;;;;;;;33.30;15.40;;;;;;;-2.03;100.00;101220.34;4936423;28;20423;-76
2023/12/02 07:32:55;;;;;;;29.20;15.73;;;;;;;-2.04;100.00;101224.63;4959744;28;20063;-76
2023/12/02 07:35:23;;;;;;;30.20;15.40;;;;;;;-2.05;100.00;101225.41;4922756;28;20055;-75
2023/12/02 07:37:50;;;;;;;41.22;16.08;;;;;;;-2.06;100.00;101228.81;4965342;28;20083;-76
2023/12/02 07:40:17;;;;;;;26.85;14.85;;;;;;;-2.05;100.00;101235.75;4938603;28;20047;-76
2023/12/02 07:42:45;;;;;;;32.10;15.65;;;;;;;-2.04;100.00;101234.97;4972373;28;20416;-76
2023/12/02 07:45:12;;;;;;;26.00;14.20;;;;;;;-2.03;100.00;101244.47;4980313;28;20504;-76
2023/12/02 07:47:39;;;;;;;30.42;15.18;;;;;;;-2.01;100.00;101236.81;4981098;28;20935;-77
2023/12/02 07:50:07;;;;;;;30.45;16.63;;;;;;;-1.96;100.00;101238.88;4931950;28;20058;-77
2023/12/02 07:52:35;;;;;;;27.52;14.45;;;;;;;-1.94;100.00;101241.56;4971678;28;20085;-77
2023/12/02 07:55:03;;;;;;;26.98;15.15;;;;;;;-1.92;100.00;101247.72;4948632;28;20046;-76
2023/12/02 07:57:30;;;;;;;29.45;15.70;;;;;;;-1.89;100.00;101247.91;4920165;28;20047;-76
2023/12/02 07:59:57;;;;;;;30.30;15.32;;;;;;;-1.88;100.00;101249.69;4979330;28;20062;-77
2023/12/02 08:02:26;;;;;;;30.73;14.93;;;;;;;-1.85;100.00;101246.38;4942200;28;20493;-76
2023/12/02 08:04:54;;;;;;;28.38;14.25;;;;;;;-1.85;100.00;101252.44;4966811;28;20065;-76
2023/12/02 08:07:24;;;;;;;21.77;11.93;;;;;;;-1.83;100.00;101255.13;4904231;28;20042;-77
2023/12/02 08:09:51;;;;;;;29.35;14.80;;;;;;;-1.81;100.00;101263.88;4982344;28;20046;-75
2023/12/02 08:12:22;;;;;;;28.60;15.25;;;;;;;-1.79;100.00;101260.56;4945209;28;20047;-75
2023/12/02 08:14:50;;;;;;;32.28;16.67;;;;;;;-1.77;100.00;101255.50;4954915;28;20051;-76
2023/12/02 08:17:17;;;;;;;32.80;17.48;;;;;;;-1.72;100.00;101259.25;4939546;28;20047;-76
2023/12/02 08:19:45;;;;;;;30.77;18.90;;;;;;;-1.69;100.00;101269.75;4962800;28;20492;-76
2023/12/02 08:22:13;;;;;;;27.15;13.88;;;;;;;-1.66;100.00;101267.34;4912533;28;20055;-76
2023/12/02 08:24:43;;;;;;;26.42;13.65;;;;;;;-1.64;100.00;101270.91;4977010;28;20043;-76
2023/12/02 08:27:11;;;;;;;28.33;14.23;;;;;;;-1.59;100.00;101271.19;4938872;28;20044;-76
2023/12/02 08:29:38;;;;;;;26.00;12.82;;;;;;;-1.57;100.00;101269.56;4940947;28;20177;-76
2023/12/02 08:32:06;;;;;;;28.27;14.50;;;;;;;-1.54;100.00;101274.94;4959981;28;20047;-77
2023/12/02 08:34:33;;;;;;;26.17;13.77;;;;;;;-1.51;100.00;101277.72;4965656;28;20042;-77
2023/12/02 08:37:01;;;;;;;26.15;14.15;;;;;;;-1.48;100.00;101283.03;4913480;28;20050;-77
2023/12/02 08:39:28;;;;;;;24.17;13.55;;;;;;;-1.44;100.00;101278.94;4981953;28;20053;-77
2023/12/02 08:41:56;;;;;;;24.38;12.68;;;;;;;-1.43;100.00;101281.63;4968666;28;20757;-77
2023/12/02 08:44:24;;;;;;;24.73;13.60;;;;;;;-1.40;100.00;101280.91;4920741;28;20062;-76
2023/12/02 08:46:54;;;;;;;26.02;13.55;;;;;;;-1.38;100.00;101276.72;4972469;28;20066;-76
2023/12/02 08:49:21;;;;;;;26.17;14.18;;;;;;;-1.34;100.00;101289.03;4954555;28;20046;-77
2023/12/02 08:51:49;;;;;;;23.52;12.30;;;;;;;-1.31;100.00;101291.78;4953561;28;20058;-77
2023/12/02 08:54:16;;;;;;;24.17;12.27;;;;;;;-1.27;100.00;101293.72;4905298;28;20058;-77
2023/12/02 08:56:44;;;;;;;27.65;12.77;;;;;;;-1.25;100.00;101297.34;4942083;28;20495;-76
2023/12/02 08:59:11;;;;;;;25.75;13.90;;;;;;;-1.23;100.00;101299.97;4925115;28;20050;-76
2023/12/02 09:01:39;;;;;;;22.40;12.55;;;;;;;-1.23;100.00;101298.31;4968328;28;20046;-77
2023/12/02 09:04:07;;;;;;;28.23;12.32;;;;;;;-1.22;100.00;101306.94;4985297;28;20051;-76
2023/12/02 09:06:34;;;;;;;23.58;12.60;;;;;;;-1.21;100.00;101304.47;4926699;28;20034;-76
2023/12/02 09:09:07;;;;;;;23.38;12.85;;;;;;;-1.18;100.00;101304.63;4935881;28;20055;-76
2023/12/02 09:11:34;;;;;;;26.48;13.20;;;;;;;-1.16;100.00;101309.88;4929889;28;20055;-77
2023/12/02 09:14:02;;;;;;;23.75;12.82;;;;;;;-1.12;100.00;101314.41;4962861;28;20058;-76
2023/12/02 09:16:30;;;;;;;22.85;13.13;;;;;;;-1.12;100.00;101321.28;4934050;28;20050;-76
2023/12/02 09:18:57;;;;;;;21.75;12.23;;;;;;;-1.11;100.00;101325.69;4969481;28;20046;-76
2023/12/02 09:21:42;;;;;;;26.95;13.63;;;;;;;-1.08;100.00;101321.53;4959434;28;20043;-76
2023/12/02 09:24:35;;;;;;;26.95;13.50;;;;;;;-1.04;100.00;101320.03;4927477;28;20050;-76
2023/12/02 09:27:05;;;;;;;24.60;12.52;;;;;;;-1.02;100.00;101327.09;4970345;28;20119;-76
2023/12/02 09:29:38;;;;;;;24.73;12.57;;;;;;;-0.99;100.00;101323.78;4943076;28;20055;-75
2023/12/02 09:32:36;;;;;;;23.70;13.38;;;;;;;-0.98;100.00;101325.59;4944594;28;20047;-76
2023/12/02 09:35:04;;;;;;;25.50;13.90;;;;;;;-0.93;100.00;101328.41;4976400;28;20118;-75
2023/12/02 09:37:54;;;;;;;23.45;13.13;;;;;;;-0.90;100.00;101315.66;4966425;28;20069;-75
2023/12/02 09:40:21;;;;;;;27.98;13.38;;;;;;;-0.85;100.00;101325.47;4936782;28;20047;-77
2023/12/02 09:43:04;;;;;;;26.13;14.73;;;;;;;-0.81;100.00;101332.59;4978614;28;20046;-75
2023/12/02 09:45:46;;;;;;;25.30;14.30;;;;;;;-0.77;100.00;101327.63;4957087;28;20050;-75
2023/12/02 09:48:23;;;;;;;30.80;16.40;;;;;;;-0.73;100.00;101322.69;4971307;28;20058;-76
2023/12/02 09:50:59;;;;;;;31.30;15.45;;;;;;;-0.67;100.00;101327.31;4980276;28;20058;-76
2023/12/02 09:53:42;;;;;;;29.58;15.65;;;;;;;-0.64;100.00;101327.50;4963445;28;20050;-76
2023/12/02 09:56:19;;;;;;;25.45;15.00;;;;;;;-0.60;100.00;101325.16;4924355;28;20815;-76
2023/12/02 09:58:56;;;;;;;24.90;14.38;;;;;;;-0.55;100.00;101325.41;4956132;28;20063;-76
2023/12/02 10:01:42;;;;;;;24.25;14.98;;;;;;;-0.50;100.00;101334.31;4945574;28;20427;-76
2023/12/02 10:04:10;;;;;;;25.48;14.73;;;;;;;-0.43;100.00;101330.38;4954438;28;20939;-76
2023/12/02 10:07:00;;;;;;;30.25;15.35;;;;;;;-0.37;100.00;101333.31;4972720;28;20046;-76
2023/12/02 10:09:52;;;;;;;25.80;14.02;;;;;;;-0.30;100.00;101326.75;4962413;28;20082;-77
2023/12/02 10:12:32;;;;;;;27.67;15.80;;;;;;;-0.23;100.00;101322.03;4959958;28;20043;-76
2023/12/02 10:15:01;;;;;;;25.65;14.55;;;;;;;-0.16;100.00;101325.81;4952060;28;20454;-76
2023/12/02 10:17:35;;;;;;;26.95;15.10;;;;;;;-0.08;100.00;101321.94;4954791;28;20058;-76
2023/12/02 10:20:11;;;;;;;28.48;16.50;;;;;;;0.02;100.00;101319.84;4963056;28;20054;-77
2023/12/02 10:22:45;;;;;;;24.73;14.07;;;;;;;0.10;100.00;101316.84;4946209;28;20911;-77
2023/12/02 10:25:42;;;;;;;31.83;14.80;;;;;;;0.17;100.00;101316.38;4922601;28;20447;-77
2023/12/02 10:28:36;;;;;;;24.08;15.40;;;;;;;0.25;100.00;101316.78;4976897;28;20591;-77
2023/12/02 10:31:06;;;;;;;24.80;16.80;;;;;;;0.31;100.00;101319.69;4963242;28;20058;-76
2023/12/02 10:33:50;;;;;;;25.25;16.95;;;;;;;0.34;100.00;101319.84;4910516;28;20043;-78
2023/12/02 10:36:20;;;;;;;23.75;16.17;;;;;;;0.39;100.00;101336.50;4955948;28;24120;-75
2023/12/02 10:39:00;;;;;;;26.95;17.48;;;;;;;0.38;100.00;101321.78;4933083;28;20134;-76
2023/12/02 10:41:51;;;;;;;19.77;11.35;;;;;;;0.37;100.00;101327.75;4940131;28;20069;-77
2023/12/02 10:44:21;;;;;;;22.15;12.32;;;;;;;0.38;100.00;101318.31;4959449;28;20443;-77
2023/12/02 10:46:49;;;;;;;19.13;11.48;;;;;;;0.44;100.00;101309.97;4950368;28;20043;-78
2023/12/02 10:49:18;;;;;;;19.75;12.68;;;;;;;0.47;100.00;101305.78;4953491;28;20061;-77
2023/12/02 10:51:49;;;;;;;20.48;11.73;;;;;;;0.53;100.00;101300.03;4970474;28;20058;-77
2023/12/02 10:54:41;;;;;;;17.85;11.25;;;;;;;0.60;100.00;101306.44;4946318;28;20058;-77
2023/12/02 10:57:08;;;;;;;20.25;12.50;;;;;;;0.63;100.00;101304.88;4945469;28;20043;-78
2023/12/02 10:59:56;;;;;;;20.80;11.65;;;;;;;0.68;100.00;101306.03;4969655;28;20051;-78
2023/12/02 11:02:37;;;;;;;18.85;10.93;;;;;;;0.72;100.00;101302.75;4931805;28;20054;-78
2023/12/02 11:05:21;;;;;;;17.83;10.75;;;;;;;0.76;100.00;101304.69;4966569;28;20538;-77
2023/12/02 11:07:55;;;;;;;17.35;10.77;;;;;;;0.81;100.00;101301.44;4952860;28;20043;-78
2023/12/02 11:10:43;;;;;;;19.50;10.63;;;;;;;0.85;100.00;101306.88;4936164;28;20179;-77
2023/12/02 11:13:14;;;;;;;16.08;9.75;;;;;;;0.90;100.00;101312.28;4924467;28;20054;-78